• Join FlightAware (Why Join?)
  • Login
  • US Flag 
11:33AM EST


 

Airport Tracker/Info


-or-


 

Live Flight TrackerFlight Track Log ✈ UPS982 ✈ 10-May-2013 ✈ KSDF - KBFI

Flight Track Log - Related Links

Times and Time Zones

All times are in EDT time to prevent confusion due to time zone crossing. See the UPS982 flight status page for this flight to view local times or setup timezone preferences in your user account.

Time Position Orientation Groundspeed Altitude Reporting Facility
EDT Latitude Longitude Course Direction KTS MPH feet Rate Location/Type
04:06AM 38.1630 -85.7410 165° South 172 198 800  Level FlightAware
04:06AM 38.1390 -85.7380 174° South 179 206 2,100 2,160 Climbing FlightAware
04:07AM 38.1130 -85.7410 185° South 216 249 3,000 2,100 Climbing FlightAware
04:07AM 38.0990 -85.7420 183° South 217 250 3,700 2,400 Climbing FlightAware
04:07AM 38.0880 -85.7450 192° South 219 252 4,000 1,680 Climbing FlightAware
04:07AM 38.0760 -85.7570 218° Southwest 230 265 4,400 1,800 Climbing FlightAware
04:08AM 38.0690 -85.7750 244° Southwest 238 274 4,900 2,400 Climbing FlightAware
04:08AM 38.0790 -85.8110 289° West 264 304 6,000 2,460 Climbing FlightAware
04:08AM 38.1060 -85.8420 318° Northwest 275 316 7,200 2,400 Climbing FlightAware
04:09AM 38.1210 -85.8560 324° Northwest 279 321 7,800 2,520 Climbing FlightAware
04:09AM 38.1470 -85.8820 322° Northwest 282 325 8,900 2,280 Climbing FlightAware
04:10AM 38.1940 -85.9290 322° Northwest 297 342 10,500 1,680 Climbing FlightAware
04:11AM 38.2400 -85.9750 322° Northwest 341 392 11,300 1,620 Climbing FlightAware
04:11AM 38.3020 -86.0370 322° Northwest 383 441 12,800 2,580 Climbing FlightAware
04:12AM 38.3580 -86.0930 322° Northwest 391 450 15,000 3,000 Climbing FlightAware
04:13AM 38.4210 -86.1570 321° Northwest 406 467 17,100 2,700 Climbing FlightAware
04:13AM 38.4820 -86.2180 322° Northwest 417 480 18,900 2,520 Climbing FlightAware
04:14AM 38.5440 -86.2800 322° Northwest 430 495 20,500 2,220 Climbing FlightAware
04:15AM 38.6100 -86.3600 317° Northwest 438 504 22,100 2,040 Climbing FlightAware
04:15AM 38.6510 -86.4470 301° West 445 512 23,400 2,100 Climbing FlightAware
04:16AM 38.6930 -86.5450 299° West 455 524 24,900 2,100 Climbing FlightAware
04:17AM 38.7380 -86.6510 299° West 464 534 26,400 2,100 Climbing FlightAware
04:18AM 38.7780 -86.7460 298° West 463 533 27,900 2,280 Climbing FlightAware
04:18AM 38.8210 -86.8490 298° West 454 522 29,700 2,700 Climbing FlightAware
04:19AM 38.8630 -86.9500 298° West 433 498 31,800 2,880 Climbing FlightAware
04:20AM 38.8990 -87.0340 299° West 404 465 33,600 1,500 Climbing FlightAware
04:20AM 38.9370 -87.1260 298° West 396 456 34,000 240 Climbing FlightAware
04:21AM 38.9730 -87.2130 298° West 395 455 34,000  Level FlightAware
04:22AM 39.0110 -87.3060 298° West 401 461 34,000  Level FlightAware
04:22AM 39.0460 -87.3900 298° West 403 464 34,000  Level FlightAware
04:23AM 39.0800 -87.4730 298° West 402 463 34,000  Level FlightAware
04:24AM 39.1190 -87.5670 298° West 400 460 34,000  Level FlightAware
04:25AM 39.1540 -87.6530 298° West 402 463 34,000  Level FlightAware
04:25AM 39.1930 -87.7500 297° West 413 475 34,000  Level FlightAware
04:26AM 39.2290 -87.8390 298° West 420 483 34,000  Level FlightAware
04:27AM 39.2650 -87.9260 298° West 422 486 34,000  Level FlightAware
04:27AM 39.3060 -88.0280 297° West 426 490 34,000  Level FlightAware
04:28AM 39.3430 -88.1200 297° West 416 479 34,000  Level FlightAware
04:29AM 39.3780 -88.2060 298° West 407 468 34,000  Level FlightAware
04:29AM 39.4160 -88.3010 297° West 402 463 34,000  Level FlightAware
04:30AM 39.4490 -88.3840 297° West 400 460 34,000  Level FlightAware
04:31AM 39.4880 -88.4830 297° West 401 461 34,000  Level FlightAware
04:32AM 39.5210 -88.5670 297° West 399 459 34,000  Level FlightAware
04:32AM 39.5560 -88.6530 298° West 398 458 34,000  Level FlightAware
04:33AM 39.5920 -88.7470 296° West 402 463 34,000  Level FlightAware
04:34AM 39.6270 -88.8340 298° West 409 471 34,000  Level FlightAware
04:34AM 39.6610 -88.9210 297° West 416 479 34,000  Level FlightAware
04:35AM 39.6990 -89.0230 296° West 421 484 34,000  Level FlightAware
04:36AM 39.7330 -89.1150 296° West 426 490 34,000  Level FlightAware
04:36AM 39.7710 -89.2200 295° West 429 494 34,000  Level FlightAware
04:37AM 39.8060 -89.3150 296° West 428 493 34,000  Level FlightAware
04:38AM 39.8430 -89.4160 296° West 425 489 34,000  Level FlightAware
04:39AM 39.8770 -89.5100 295° West 423 487 34,000  Level FlightAware
04:39AM 39.9090 -89.6010 295° West 422 486 34,000  Level FlightAware
04:40AM 39.9470 -89.7060 295° West 421 484 34,000  Level FlightAware
04:41AM 39.9800 -89.7970 295° West 420 483 34,000  Level FlightAware
04:41AM 40.0100 -89.8820 295° West 418 481 34,000  Level FlightAware
04:42AM 40.0490 -89.9900 295° West 417 480 34,000  Level FlightAware
04:43AM 40.0790 -90.0740 295° West 415 478 34,000  Level FlightAware
04:43AM 40.1180 -90.1860 295° West 414 476 34,000  Level FlightAware
04:44AM 40.1540 -90.2860 295° West 414 476 34,000  Level FlightAware
04:45AM 40.1820 -90.3670 294° West 414 476 34,000  Level FlightAware
04:46AM 40.2220 -90.4820 295° West 414 476 34,000  Level FlightAware
04:46AM 40.2540 -90.5720 295° West 414 476 34,000  Level FlightAware
04:47AM 40.2860 -90.6640 295° West 414 476 34,000  Level FlightAware
04:48AM 40.3210 -90.7660 294° West 426 490 34,000  Level FlightAware
04:48AM 40.3530 -90.8590 294° West 429 494 34,000  Level FlightAware
04:49AM 40.3860 -90.9550 294° West 431 496 34,000  Level FlightAware
04:50AM 40.4240 -91.0650 294° West 434 499 34,000  Level FlightAware
04:50AM 40.4550 -91.1560 294° West 436 502 34,000  Level FlightAware
04:51AM 40.4900 -91.2580 294° West 439 505 34,000  Level FlightAware
04:52AM 40.5230 -91.3550 294° West 440 506 34,000  Level FlightAware
04:53AM 40.5640 -91.4770 294° West 441 507 34,000  Level FlightAware
04:53AM 40.5970 -91.5740 294° West 442 509 34,000  Level FlightAware
04:54AM 40.6330 -91.6820 294° West 444 511 34,000  Level FlightAware
04:55AM 40.6790 -91.8220 293° West 448 516 34,000  Level FlightAware
04:56AM 40.7120 -91.9210 294° West 450 518 34,000  Level FlightAware
04:56AM 40.7460 -92.0230 294° West 453 521 34,000  Level FlightAware
04:57AM 40.7810 -92.1290 294° West 456 525 34,000  Level FlightAware
04:58AM 40.8170 -92.2370 294° West 457 526 34,000  Level FlightAware
04:58AM 40.8420 -92.3160 293° West 457 526 34,000  Level FlightAware
04:59AM 40.8880 -92.4550 294° West 460 529 34,000  Level FlightAware
05:00AM 40.9220 -92.5600 293° West 461 531 34,000  Level FlightAware
05:00AM 40.9560 -92.6630 294° West 463 533 34,000  Level FlightAware
05:01AM 40.9930 -92.7800 293° West 466 536 34,000  Level FlightAware
05:02AM 41.0310 -92.8970 293° West 466 536 34,000  Level FlightAware
05:03AM 41.0650 -93.0030 293° West 465 535 34,000  Level FlightAware
05:03AM 41.0980 -93.1070 293° West 465 535 34,000  Level FlightAware
05:04AM 41.1320 -93.2140 293° West 463 533 34,000  Level FlightAware
05:05AM 41.1640 -93.3150 293° West 460 529 34,000  Level FlightAware
05:05AM 41.2050 -93.4470 292° West 459 528 34,000  Level FlightAware
05:06AM 41.2260 -93.5150 292° West 457 526 34,000  Level FlightAware
05:07AM 41.2640 -93.6380 292° West 457 526 34,000  Level FlightAware
05:07AM 41.2910 -93.7260 292° West 457 526 34,000  Level FlightAware
05:08AM 41.3380 -93.8740 293° West 459 528 34,000  Level FlightAware
05:09AM 41.3710 -93.9790 293° West 460 529 34,000  Level FlightAware
05:10AM 41.4040 -94.0870 292° West 461 531 34,000  Level FlightAware
05:10AM 41.4390 -94.2040 292° West 461 531 34,000  Level FlightAware
05:11AM 41.4710 -94.3080 292° West 461 531 34,000  Level FlightAware
05:12AM 41.5050 -94.4210 292° West 460 529 34,000  Level FlightAware
05:12AM 41.5310 -94.5090 292° West 460 529 34,000  Level FlightAware
05:13AM 41.5630 -94.6220 291° West 460 529 34,000  Level FlightAware
05:14AM 41.6060 -94.7560 293° West 457 526 34,000  Level FlightAware
05:15AM 41.6370 -94.8620 291° West 457 526 34,000  Level FlightAware
05:15AM 41.6620 -94.9520 290° West 457 526 34,000  Level FlightAware
05:16AM 41.6880 -95.0420 291° West 457 526 34,000  Level FlightAware
05:17AM 41.7140 -95.1310 291° West 457 526 34,000  Level FlightAware
05:17AM 41.7400 -95.2210 291° West 457 526 34,000  Level FlightAware
05:18AM 41.7720 -95.3340 291° West 457 526 34,000  Level FlightAware
05:19AM 41.7980 -95.4240 291° West 457 526 34,000  Level FlightAware
05:19AM 41.8630 -95.6290 293° West 450 518 34,000  Level FlightAware
05:20AM 41.8890 -95.7200 291° West 450 518 34,000  Level FlightAware
05:21AM 41.9140 -95.8080 291° West 450 518 34,000  Level FlightAware
05:22AM 41.9460 -95.9190 291° West 450 518 34,000  Level FlightAware
05:22AM 41.9820 -96.0460 291° West 448 516 34,000  Level FlightAware
05:23AM 42.0150 -96.1650 291° West 448 516 34,000  Level FlightAware
05:24AM 42.0390 -96.2540 290° West 448 516 34,000  Level FlightAware
05:24AM 42.0630 -96.3430 290° West 448 516 34,000  Level FlightAware
05:25AM 42.0870 -96.4330 290° West 448 516 34,000  Level FlightAware
05:26AM 42.1170 -96.5440 290° West 448 516 34,000  Level FlightAware
05:26AM 42.1410 -96.6330 290° West 448 516 34,000  Level FlightAware
05:27AM 42.1650 -96.7230 290° West 448 516 34,000  Level FlightAware
05:28AM 42.1890 -96.8120 290° West 448 516 34,000  Level FlightAware
05:28AM 42.2140 -96.9020 291° West 448 516 34,000  Level FlightAware
05:29AM 42.2440 -97.0130 290° West 448 516 34,000  Level FlightAware
05:30AM 42.2680 -97.1030 290° West 448 516 34,000  Level FlightAware
05:31AM 42.2920 -97.1920 290° West 448 516 34,000  Level FlightAware
05:31AM 42.3160 -97.2820 290° West 448 516 34,000  Level FlightAware
05:32AM 42.3460 -97.3940 290° West 448 516 34,000  Level FlightAware
05:33AM 42.4408 -97.7150 290° West 433 498 34,000  Level Minneapolis Center
05:34AM 42.4814 -97.8681 290° West 433 498 34,000  Level Minneapolis Center
05:35AM 42.5219 -98.0225 290° West 437 503 34,000  Level Minneapolis Center
05:36AM 42.5625 -98.1786 289° West 442 509 34,000  Level Minneapolis Center
05:37AM 42.6036 -98.3361 290° West 444 511 34,000  Level Minneapolis Center
05:38AM 42.6444 -98.4947 289° West 445 512 34,000  Level Minneapolis Center
05:39AM 42.6850 -98.6531 289° West 446 513 34,000  Level Minneapolis Center
05:40AM 42.7256 -98.8125 289° West 447 514 34,000  Level Minneapolis Center
05:41AM 42.7661 -98.9728 289° West 450 518 34,000  Level Minneapolis Center
05:42AM 42.8067 -99.1344 289° West 452 520 34,000  Level Minneapolis Center
05:43AM 42.8472 -99.2967 289° West 453 521 34,000  Level Minneapolis Center
05:44AM 42.8875 -99.4594 289° West 455 524 34,000  Level Minneapolis Center
05:45AM 42.9278 -99.6228 289° West 454 522 34,000  Level Minneapolis Center
05:46AM 42.9661 -99.7808 288° West 455 524 34,000  Level Minneapolis Center
05:47AM 43.0058 -99.9453 288° West 456 525 34,000  Level Minneapolis Center
05:48AM 43.0458 -100.1106 288° West 459 528 34,000  Level Minneapolis Center
05:48AM 43.0525 -100.1400 287° West 458 527 34,000  Level Denver Center
05:49AM 43.1003 -100.3389 288° West 458 527 34,000  Level Denver Center
05:50AM 43.1403 -100.5069 288° West 461 531 34,000  Level Denver Center
05:51AM 43.1786 -100.6733 288° West 457 526 34,000  Level Denver Center
05:52AM 43.2175 -100.8392 288° West 455 524 34,000  Level Denver Center
05:53AM 43.2564 -101.0056 288° West 457 526 34,000  Level Denver Center
05:54AM 43.2936 -101.1714 287° West 456 525 34,000  Level Denver Center
05:55AM 43.3325 -101.3383 288° West 458 527 34,000  Level Denver Center
05:56AM 43.3700 -101.5042 287° West 455 524 34,000  Level Denver Center
05:57AM 43.4064 -101.6711 287° West 457 526 34,000  Level Denver Center
05:58AM 43.4444 -101.8389 287° West 458 527 34,000  Level Denver Center
05:59AM 43.4817 -102.0075 287° West 459 528 34,000  Level Denver Center
06:00AM 43.5194 -102.1769 287° West 461 531 34,000  Level Denver Center
06:01AM 43.5547 -102.3422 286° West 467 537 34,000  Level Denver Center
06:02AM 43.5967 -102.5342 287° West 470 541 34,000  Level Denver Center
06:03AM 43.6303 -102.6975 286° West 466 536 34,000  Level Denver Center
06:04AM 43.6650 -102.8625 286° West 466 536 34,000  Level Denver Center
06:05AM 43.7014 -103.0308 287° West 474 545 34,000  Level Denver Center
06:06AM 43.7428 -103.2267 286° West 476 548 34,000  Level Denver Center
06:07AM 43.7775 -103.3944 286° West 476 548 34,000  Level Denver Center
06:08AM 43.8122 -103.5617 286° West 474 545 34,000  Level Denver Center
06:09AM 43.8519 -103.7558 286° West 471 542 34,000  Level Denver Center
06:10AM 43.8856 -103.9225 286° West 471 542 34,000  Level Denver Center
06:11AM 43.9189 -104.0886 286° West 471 542 34,000  Level Denver Center
06:12AM 43.9567 -104.2828 285° West 469 540 34,000  Level Denver Center
06:13AM 43.9897 -104.4494 285° West 469 540 34,000  Level Denver Center
06:14AM 44.0222 -104.6133 285° West 464 534 34,000  Level Denver Center
06:15AM 44.0536 -104.7819 285° West 469 540 34,000  Level Denver Center
06:16AM 44.0906 -104.9742 285° West 464 534 34,000  Level Denver Center
06:17AM 44.1228 -105.1392 285° West 463 533 34,000  Level Denver Center
06:18AM 44.1539 -105.3047 285° West 463 533 34,000  Level Denver Center
06:19AM 44.1883 -105.4994 284° West 464 534 34,000  Level Denver Center
06:20AM 44.2192 -105.6642 285° West 463 533 34,000  Level Denver Center
06:21AM 44.2497 -105.8294 285° West 461 531 34,000  Level Denver Center
06:22AM 44.2836 -106.0239 284° West 462 532 34,000  Level Denver Center
06:23AM 44.3122 -106.1758 285° West 462 532 34,000  Level Denver Center
06:24AM 44.3456 -106.3703 284° West 461 531 34,000  Level Denver Center
06:25AM 44.3744 -106.5356 284° West 460 529 34,000  Level Denver Center
06:26AM 44.3850 -106.5911 285° West 460 529 34,000  Level Salt Lake Center
06:27AM 44.4167 -106.7850 283° West 459 528 34,000  Level Salt Lake Center
06:28AM 44.4456 -106.9514 284° West 460 529 34,000  Level Salt Lake Center
06:29AM 44.4736 -107.1172 283° West 458 527 34,000  Level Salt Lake Center
06:30AM 44.5003 -107.2828 283° West 456 525 34,000  Level Salt Lake Center
06:31AM 44.5328 -107.4772 283° West 458 527 34,000  Level Salt Lake Center
06:32AM 44.5606 -107.6447 283° West 457 526 34,000  Level Salt Lake Center
06:33AM 44.5881 -107.8122 283° West 456 525 34,000  Level Salt Lake Center
06:34AM 44.6144 -107.9811 282° West 456 525 34,000  Level Salt Lake Center
06:35AM 44.6464 -108.1783 283° West 458 527 34,000  Level Salt Lake Center
06:36AM 44.6739 -108.3461 283° West 458 527 34,000  Level Salt Lake Center
06:37AM 44.7000 -108.5142 282° West 458 527 34,000  Level Salt Lake Center
06:38AM 44.7258 -108.6800 282° West 455 524 34,000  Level Salt Lake Center
06:39AM 44.7553 -108.8769 282° West 458 527 34,000  Level Salt Lake Center
06:40AM 44.7806 -109.0450 282° West 460 529 34,000  Level Salt Lake Center
06:41AM 44.8044 -109.2131 281° West 459 528 34,000  Level Salt Lake Center
06:42AM 44.8300 -109.3825 282° West 460 529 34,000  Level Salt Lake Center
06:43AM 44.8583 -109.5792 282° West 459 528 34,000  Level Salt Lake Center
06:44AM 44.8828 -109.7483 282° West 460 529 34,000  Level Salt Lake Center
06:45AM 44.9075 -109.9158 282° West 460 529 34,000  Level Salt Lake Center
06:46AM 44.9311 -110.0853 281° West 461 531 34,000  Level Salt Lake Center
06:47AM 44.9594 -110.2842 281° West 463 533 34,000  Level Salt Lake Center
06:48AM 44.9819 -110.4542 281° West 463 533 34,000  Level Salt Lake Center
06:49AM 45.0056 -110.6244 281° West 463 533 34,000  Level Salt Lake Center
06:50AM 45.0322 -110.8222 281° West 460 529 34,000  Level Salt Lake Center
06:51AM 45.0547 -110.9942 281° West 465 535 34,000  Level Salt Lake Center
06:52AM 45.0772 -111.1653 281° West 466 536 34,000  Level Salt Lake Center
06:53AM 45.1031 -111.3650 280° West 465 535 34,000  Level Salt Lake Center
06:54AM 45.1228 -111.5164 281° West 465 535 34,000  Level Salt Lake Center
06:55AM 45.1453 -111.6997 280° West 469 540 34,000  Level Salt Lake Center
06:56AM 45.1681 -111.8822 280° West 468 539 34,000  Level Salt Lake Center
06:57AM 45.1900 -112.0625 280° West 465 535 34,000  Level Salt Lake Center
06:58AM 45.2131 -112.2561 280° West 466 536 34,000  Level Salt Lake Center
06:59AM 45.2347 -112.4283 280° West 466 536 34,000  Level Salt Lake Center
07:00AM 45.2572 -112.6311 279° West 466 536 34,000  Level Salt Lake Center
07:01AM 45.2739 -112.8058 278° West 468 539 34,000  Level Salt Lake Center
07:02AM 45.2894 -112.9811 277° West 469 540 34,000  Level Salt Lake Center
07:03AM 45.3103 -113.1858 278° West 470 541 34,000  Level Salt Lake Center
07:04AM 45.3256 -113.3625 277° West 470 541 34,000  Level Salt Lake Center
07:05AM 45.3422 -113.5381 278° West 470 541 34,000  Level Salt Lake Center
07:06AM 45.3592 -113.7211 278° West 469 540 34,000  Level Salt Lake Center
07:07AM 45.3761 -113.9258 277° West 467 537 34,000  Level Salt Lake Center
07:08AM 45.3914 -114.1000 277° West 464 534 34,000  Level Salt Lake Center
07:09AM 45.4061 -114.2750 277° West 465 535 34,000  Level Salt Lake Center
07:10AM 45.4206 -114.4497 277° West 467 537 34,000  Level Salt Lake Center
07:11AM 45.4369 -114.6544 277° West 466 536 34,000  Level Salt Lake Center
07:12AM 45.4522 -114.8300 277° West 468 539 34,000  Level Salt Lake Center
07:13AM 45.4658 -115.0081 276° West 473 544 34,000  Level Salt Lake Center
07:14AM 45.4767 -115.1528 276° West 464 534 34,000  Level Seattle Center
07:15AM 45.4922 -115.3269 277° West 465 535 34,000  Level Seattle Center
07:16AM 45.5336 -115.4908 290° West 460 529 34,000  Level Seattle Center
07:17AM 45.5872 -115.6767 292° West 455 524 34,000  Level Seattle Center
07:18AM 45.6325 -115.8378 292° West 457 526 34,000  Level Seattle Center
07:19AM 45.6792 -116.0006 292° West 457 526 34,000  Level Seattle Center
07:20AM 45.7272 -116.1703 292° West 460 529 34,000  Level Seattle Center
07:21AM 45.7747 -116.3386 292° West 460 529 34,000  Level Seattle Center
07:22AM 45.8219 -116.5089 292° West 459 528 34,000  Level Seattle Center
07:23AM 45.8692 -116.6786 292° West 460 529 34,000  Level Seattle Center
07:24AM 45.9153 -116.8486 291° West 458 527 34,000  Level Seattle Center
07:25AM 45.9619 -117.0183 292° West 458 527 34,000  Level Seattle Center
07:26AM 46.0086 -117.1900 291° West 460 529 34,000  Level Seattle Center
07:27AM 46.0547 -117.3608 291° West 459 528 34,000  Level Seattle Center
07:28AM 46.1000 -117.5322 291° West 457 526 34,000  Level Seattle Center
07:29AM 46.1472 -117.7061 291° West 455 524 34,000  Level Seattle Center
07:30AM 46.1908 -117.8725 291° West 455 524 34,000  Level Seattle Center
07:31AM 46.2353 -118.0450 290° West 457 526 34,000  Level Seattle Center
07:32AM 46.2794 -118.2167 290° West 456 525 34,000  Level Seattle Center
07:33AM 46.3242 -118.3886 291° West 456 525 34,000  Level Seattle Center
07:34AM 46.3675 -118.5608 290° West 456 525 34,000  Level Seattle Center
07:35AM 46.4114 -118.7325 290° West 454 522 34,000  Level Seattle Center
07:36AM 46.4581 -118.9194 290° West 455 524 34,000  Level Seattle Center
07:37AM 46.5008 -119.0903 290° West 454 522 34,000  Level Seattle Center
07:38AM 46.5439 -119.2636 290° West 457 526 34,000  Level Seattle Center
07:39AM 46.5858 -119.4350 290° West 453 521 34,000  Level Seattle Center
07:40AM 46.6283 -119.6067 290° West 453 521 34,000  Level Seattle Center
07:41AM 46.6692 -119.7786 289° West 453 521 34,000  Level Seattle Center
07:42AM 46.7108 -119.9514 289° West 454 522 34,000  Level Seattle Center
07:43AM 46.7522 -120.1236 289° West 453 521 34,000 -840 Level Seattle Center
07:44AM 46.7928 -120.2964 289° West 452 520 32,400 -1,920 Descending Seattle Center
07:50AM 47.0150 -121.2530 289° West 388 447 21,000 -1,920 Descending FlightAware
07:51AM 47.0490 -121.4050 288° West 403 464 18,600 -2,220 Descending FlightAware
07:52AM 47.1150 -121.6040 296° West 407 468 16,200 -2,040 Descending FlightAware
07:53AM 47.1150 -121.6040 296° West 400 460 15,600 -960 Descending FlightAware
07:53AM 47.1150 -121.6040 296° West 400 460 15,000 -720 Descending FlightAware
07:54AM 47.2400 -121.8780 304° West 399 459 14,600 -1,140 Descending FlightAware
07:55AM 47.2770 -121.9570 305° West 373 429 13,400 -1,500 Descending FlightAware
07:55AM 47.3170 -122.0470 303° West 341 392 12,600 -1,200 Descending FlightAware
07:56AM 47.3440 -122.1060 304° West 335 386 11,800 -1,740 Descending FlightAware
07:57AM 47.3880 -122.2050 303° West 330 380 10,200 -1,620 Descending FlightAware
07:57AM 47.4120 -122.2610 302° West 316 364 9,700 -900 Descending FlightAware
07:57AM 47.4180 -122.2730 306° West 310 357 9,700 120 Level FlightAware
07:58AM 47.4400 -122.3230 303° West 284 327 9,800  Climbing FlightAware
07:58AM 47.4540 -122.3500 307° West 282 325 9,700 -1,020 Descending FlightAware
07:58AM 47.4680 -122.3610 332° Northwest 280 322 9,300 -2,580 Descending FlightAware
07:59AM 47.5010 -122.3870 332° Northwest 282 325 8,000 -1,740 Descending FlightAware
08:00AM 47.5440 -122.4230 331° Northwest 279 321 7,300 -2,220 Descending FlightAware
08:00AM 47.5700 -122.4478 331° Northwest 278 320 5,800 -3,480 Descending Seattle Center
08:00AM 47.6019 -122.4778 328° Northwest 266 306 4,500 -2,340 Descending Seattle Center
08:01AM 47.6350 -122.4919 344° North 260 299 3,500 -2,100 Descending Seattle Center
08:01AM 47.6594 -122.4592 42° Northeast 249 287 2,400 -1,200 Descending Seattle Center
08:02AM 47.6544 -122.4139 99° East 236 272 2,300 -300 Descending Seattle Center
08:02AM 47.6336 -122.3914 144° Southeast 181 208 2,100 -600 Descending Seattle Center
08:03AM 47.6103 -122.3717 150° Southeast 189 217 1,700 -900 Descending Seattle Center
08:03AM 47.5911 -122.3556 150° Southeast 152 175 1,200 -840 Descending Seattle Center
08:04AM 47.5728 -122.3408 152° Southeast 158 182 900 -840 Descending Seattle Center
08:04AM 47.5567 -122.3253 147° Southeast 145 167 400 -720 Descending Seattle Center
08:05AM 47.5453 -122.3153 149° Southeast 145 167 200 -420 Descending Seattle Center
08:07AM 47.5300 -122.3020 133° Southeast  Level Estimated
08:14AM 47.5300 -122.3020 133° Southeast  Level Estimated
08:15AM 47.5300 -122.3020 133° Southeast  Level Estimated
08:16AM 47.5300 -122.3020 133° Southeast  Level Estimated
08:17AM 47.5300 -122.3020 133° Southeast  Level Estimated
08:18AM 47.5300 -122.3020 133° Southeast  Level Estimated
08:19AM 47.5300 -122.3020 133° Southeast  Level Estimated
08:20AM 47.5300 -122.3020 133° Southeast  Level Estimated